N750TX KVNY-KEGE
Flight info
| Callsign | N750TX |
|---|---|
| Flight time | 1h 30m |
| Altitude | 45000 |
| Route | HARYS5 LAS TESSY AAVON1 |
| Aircraft | C750/M-SBDE3FGHRWXY/S |
Departure
| Time | 2026-04-22 23:54 |
|---|---|
| Airport | Van Nuys Airport (KVNY) |
Arrival
| Time | 2026-04-23 01:25 |
|---|---|
| Airport | Eagle County Regional Airport (KEGE) |
| Time | Latitude | Longitude | Altitude | Speed | Heading |
|---|---|---|---|---|---|
| 2026-04-22 23:42 | 34.20729 | -118.49202 | 808 ft | 0 kts | 360° |
| 2026-04-22 23:50 | 34.20730 | -118.49192 | 808 ft | 2 kts | 97° |
| 2026-04-22 23:50 | 34.20730 | -118.49191 | 808 ft | 0 kts | 98° |
| 2026-04-22 23:50 | 34.20731 | -118.49171 | 808 ft | 7 kts | 76° |
| 2026-04-22 23:51 | 34.20769 | -118.49141 | 808 ft | 8 kts | 10° |
| 2026-04-22 23:51 | 34.20862 | -118.49144 | 808 ft | 19 kts | 355° |
| 2026-04-22 23:51 | 34.21000 | -118.49157 | 808 ft | 20 kts | 355° |
| 2026-04-22 23:51 | 34.21132 | -118.49169 | 808 ft | 18 kts | 356° |
| 2026-04-22 23:52 | 34.21256 | -118.49182 | 808 ft | 17 kts | 356° |
| 2026-04-22 23:52 | 34.21376 | -118.49193 | 808 ft | 19 kts | 356° |
| 2026-04-22 23:52 | 34.21525 | -118.49212 | 808 ft | 21 kts | 347° |
| 2026-04-22 23:52 | 34.21669 | -118.49228 | 808 ft | 20 kts | 359° |
| 2026-04-22 23:53 | 34.21805 | -118.49235 | 807 ft | 19 kts | 356° |
| 2026-04-22 23:53 | 34.21876 | -118.49201 | 807 ft | 6 kts | 69° |
| 2026-04-22 23:53 | 34.21874 | -118.49141 | 807 ft | 7 kts | 115° |
| 2026-04-22 23:53 | 34.21835 | -118.49120 | 807 ft | 16 kts | 176° |
| 2026-04-22 23:54 | 34.21408 | -118.49078 | 808 ft | 107 kts | 176° |
| 2026-04-22 23:54 | 34.20478 | -118.48993 | 1053 ft | 145 kts | 175° |
| 2026-04-22 23:54 | 34.19420 | -118.48907 | 1635 ft | 160 kts | 178° |
| 2026-04-22 23:54 | 34.18295 | -118.48566 | 2267 ft | 177 kts | 157° |
| 2026-04-22 23:55 | 34.17135 | -118.47097 | 3311 ft | 191 kts | 119° |
| 2026-04-22 23:55 | 34.16878 | -118.46076 | 3847 ft | 194 kts | 96° |
| 2026-04-22 23:55 | 34.17099 | -118.44458 | 4673 ft | 202 kts | 63° |
| 2026-04-22 23:55 | 34.18022 | -118.43182 | 5547 ft | 205 kts | 30° |
| 2026-04-22 23:56 | 34.19361 | -118.42706 | 6442 ft | 202 kts | 359° |
| 2026-04-22 23:56 | 34.20746 | -118.42945 | 7336 ft | 202 kts | 339° |
| 2026-04-22 23:56 | 34.22067 | -118.43493 | 8346 ft | 209 kts | 350° |
| 2026-04-22 23:56 | 34.23548 | -118.43268 | 9306 ft | 216 kts | 4° |
| 2026-04-22 23:57 | 34.25006 | -118.43388 | 10252 ft | 208 kts | 341° |
| 2026-04-22 23:57 | 34.26412 | -118.43735 | 11201 ft | 206 kts | 341° |
| 2026-04-22 23:57 | 34.27819 | -118.44038 | 12132 ft | 205 kts | 341° |
| 2026-04-22 23:57 | 34.29196 | -118.44345 | 13045 ft | 203 kts | 340° |
| 2026-04-22 23:58 | 34.30579 | -118.44662 | 13974 ft | 202 kts | 339° |
| 2026-04-22 23:58 | 34.31957 | -118.44978 | 14778 ft | 201 kts | 339° |
| 2026-04-22 23:58 | 34.33359 | -118.45167 | 15551 ft | 212 kts | 353° |
| 2026-04-22 23:58 | 34.34827 | -118.44621 | 16288 ft | 233 kts | 19° |
| 2026-04-22 23:59 | 34.36129 | -118.43412 | 17114 ft | 239 kts | 31° |
| 2026-04-22 23:59 | 34.37398 | -118.42123 | 17964 ft | 238 kts | 29° |
| 2026-04-22 23:59 | 34.38680 | -118.40856 | 18755 ft | 238 kts | 28° |
| 2026-04-22 23:59 | 34.39963 | -118.39592 | 19270 ft | 251 kts | 28° |
| 2026-04-23 00:00 | 34.43076 | -118.36519 | 19239 ft | 325 kts | 32° |
| 2026-04-23 00:00 | 34.44888 | -118.34689 | 19372 ft | 354 kts | 33° |
| 2026-04-23 00:00 | 34.46851 | -118.32719 | 19541 ft | 378 kts | 33° |
| 2026-04-23 00:01 | 34.48938 | -118.30639 | 19795 ft | 398 kts | 33° |
| 2026-04-23 00:01 | 34.51130 | -118.28456 | 20064 ft | 417 kts | 33° |
| 2026-04-23 00:01 | 34.53399 | -118.26180 | 20345 ft | 429 kts | 33° |
| 2026-04-23 00:01 | 34.55685 | -118.23878 | 20657 ft | 435 kts | 33° |
| 2026-04-23 00:02 | 34.58029 | -118.21525 | 20942 ft | 440 kts | 33° |
| 2026-04-23 00:02 | 34.60398 | -118.19162 | 21228 ft | 443 kts | 33° |
| 2026-04-23 00:02 | 34.62720 | -118.16658 | 21496 ft | 452 kts | 40° |
| 2026-04-23 00:02 | 34.64726 | -118.13683 | 21760 ft | 461 kts | 50° |
| 2026-04-23 00:03 | 34.66347 | -118.10300 | 22037 ft | 469 kts | 60° |
| 2026-04-23 00:03 | 34.67521 | -118.06560 | 22331 ft | 476 kts | 71° |
| 2026-04-23 00:03 | 34.68251 | -118.02611 | 22640 ft | 481 kts | 76° |
| 2026-04-23 00:03 | 34.68916 | -117.98619 | 22975 ft | 485 kts | 76° |
| 2026-04-23 00:04 | 34.69333 | -117.94593 | 23262 ft | 489 kts | 85° |
| 2026-04-23 00:04 | 34.69556 | -117.90452 | 23600 ft | 492 kts | 85° |
| 2026-04-23 00:04 | 34.69817 | -117.86287 | 23892 ft | 495 kts | 84° |
| 2026-04-23 00:04 | 34.70090 | -117.82116 | 24159 ft | 497 kts | 84° |
| 2026-04-23 00:05 | 34.70338 | -117.77925 | 24450 ft | 499 kts | 85° |
| 2026-04-23 00:05 | 34.70535 | -117.73698 | 24738 ft | 501 kts | 87° |
| 2026-04-23 00:05 | 34.70691 | -117.69457 | 25027 ft | 504 kts | 86° |
| 2026-04-23 00:05 | 34.70867 | -117.65273 | 25329 ft | 483 kts | 86° |
| 2026-04-23 00:06 | 34.71034 | -117.61215 | 25508 ft | 491 kts | 86° |
| 2026-04-23 00:06 | 34.71187 | -117.57094 | 26393 ft | 484 kts | 87° |
| 2026-04-23 00:06 | 34.71358 | -117.53007 | 27063 ft | 487 kts | 85° |
| 2026-04-23 00:06 | 34.71961 | -117.48939 | 27538 ft | 490 kts | 73° |
| 2026-04-23 00:07 | 34.72980 | -117.44984 | 28093 ft | 492 kts | 69° |
| 2026-04-23 00:07 | 34.74050 | -117.41013 | 28628 ft | 497 kts | 69° |
| 2026-04-23 00:07 | 34.75115 | -117.36999 | 29183 ft | 501 kts | 69° |
| 2026-04-23 00:07 | 34.76182 | -117.32944 | 29702 ft | 505 kts | 70° |
| 2026-04-23 00:08 | 34.77248 | -117.28924 | 30212 ft | 509 kts | 69° |
| 2026-04-23 00:08 | 34.78344 | -117.24809 | 30663 ft | 513 kts | 69° |
| 2026-04-23 00:08 | 34.79440 | -117.20667 | 31099 ft | 517 kts | 70° |
| 2026-04-23 00:08 | 34.80538 | -117.16488 | 31501 ft | 521 kts | 70° |
| 2026-04-23 00:09 | 34.81648 | -117.12272 | 31958 ft | 524 kts | 70° |
| 2026-04-23 00:09 | 34.82764 | -117.08037 | 32372 ft | 528 kts | 70° |
| 2026-04-23 00:09 | 34.83890 | -117.03759 | 32817 ft | 532 kts | 70° |
| 2026-04-23 00:09 | 34.85020 | -116.99448 | 33247 ft | 536 kts | 70° |
| 2026-04-23 00:10 | 34.86150 | -116.95121 | 33658 ft | 540 kts | 70° |
| 2026-04-23 00:10 | 34.87277 | -116.90815 | 34097 ft | 542 kts | 70° |
| 2026-04-23 00:10 | 34.88420 | -116.86440 | 34603 ft | 542 kts | 70° |
| 2026-04-23 00:10 | 34.89559 | -116.82062 | 35074 ft | 543 kts | 70° |
| 2026-04-23 00:11 | 34.90718 | -116.77684 | 35520 ft | 543 kts | 68° |
| 2026-04-23 00:11 | 34.92230 | -116.73470 | 35968 ft | 540 kts | 58° |
| 2026-04-23 00:11 | 34.94195 | -116.69613 | 36458 ft | 533 kts | 48° |
| 2026-04-23 00:11 | 34.96551 | -116.66165 | 36971 ft | 526 kts | 40° |
| 2026-04-23 00:12 | 34.99126 | -116.63022 | 37505 ft | 522 kts | 36° |
| 2026-04-23 00:12 | 35.01764 | -116.59989 | 38036 ft | 522 kts | 35° |
| 2026-04-23 00:12 | 35.04315 | -116.56806 | 38535 ft | 528 kts | 40° |
| 2026-04-23 00:12 | 35.06732 | -116.53405 | 39038 ft | 530 kts | 43° |
| 2026-04-23 00:13 | 35.09134 | -116.50020 | 39503 ft | 527 kts | 40° |
| 2026-04-23 00:13 | 35.11611 | -116.46836 | 39971 ft | 523 kts | 38° |
| 2026-04-23 00:13 | 35.14144 | -116.43648 | 40458 ft | 523 kts | 39° |
| 2026-04-23 00:13 | 35.16599 | -116.40367 | 40944 ft | 524 kts | 41° |
| 2026-04-23 00:14 | 35.19017 | -116.37042 | 41393 ft | 523 kts | 41° |
| 2026-04-23 00:14 | 35.21482 | -116.33766 | 41843 ft | 521 kts | 40° |
| 2026-04-23 00:14 | 35.23965 | -116.30546 | 42293 ft | 520 kts | 40° |
| 2026-04-23 00:14 | 35.26420 | -116.27297 | 42746 ft | 521 kts | 41° |
| 2026-04-23 00:15 | 35.28853 | -116.24007 | 43203 ft | 521 kts | 42° |
| 2026-04-23 00:15 | 35.31292 | -116.20734 | 43579 ft | 521 kts | 41° |
| 2026-04-23 00:15 | 35.33718 | -116.17527 | 44007 ft | 520 kts | 41° |
| 2026-04-23 00:15 | 35.36164 | -116.14284 | 44438 ft | 519 kts | 41° |
| 2026-04-23 00:16 | 35.38599 | -116.11014 | 44826 ft | 519 kts | 42° |
| 2026-04-23 00:16 | 35.41036 | -116.07736 | 44994 ft | 524 kts | 42° |
| 2026-04-23 00:16 | 35.43524 | -116.04417 | 44988 ft | 531 kts | 42° |
| 2026-04-23 00:17 | 35.48584 | -115.97639 | 45012 ft | 547 kts | 42° |
| 2026-04-23 00:17 | 35.53740 | -115.90700 | 45016 ft | 561 kts | 43° |
| 2026-04-23 00:18 | 35.59062 | -115.83542 | 45025 ft | 574 kts | 43° |
| 2026-04-23 00:18 | 35.64482 | -115.76215 | 45029 ft | 582 kts | 43° |
| 2026-04-23 00:19 | 35.69867 | -115.68784 | 45027 ft | 582 kts | 44° |
| 2026-04-23 00:19 | 35.75239 | -115.61402 | 45023 ft | 583 kts | 43° |
| 2026-04-23 00:20 | 35.80636 | -115.53955 | 45018 ft | 583 kts | 44° |
| 2026-04-23 00:20 | 35.86026 | -115.46496 | 45018 ft | 582 kts | 43° |
| 2026-04-23 00:21 | 35.91408 | -115.39044 | 45014 ft | 583 kts | 44° |
| 2026-04-23 00:21 | 35.96791 | -115.31560 | 45016 ft | 583 kts | 43° |
| 2026-04-23 00:22 | 36.02146 | -115.24113 | 44965 ft | 584 kts | 44° |
| 2026-04-23 00:22 | 36.07490 | -115.16634 | 44956 ft | 570 kts | 44° |
| 2026-04-23 00:23 | 36.12239 | -115.08799 | 44956 ft | 575 kts | 50° |
| 2026-04-23 00:23 | 36.16982 | -115.00714 | 44932 ft | 586 kts | 50° |
| 2026-04-23 00:24 | 36.21794 | -114.92595 | 44899 ft | 590 kts | 50° |
| 2026-04-23 00:24 | 36.26607 | -114.84359 | 44896 ft | 590 kts | 50° |
| 2026-04-23 00:25 | 36.31449 | -114.76139 | 44879 ft | 591 kts | 50° |
| 2026-04-23 00:25 | 36.36269 | -114.67872 | 44873 ft | 592 kts | 50° |
| 2026-04-23 00:26 | 36.41061 | -114.59669 | 44870 ft | 591 kts | 50° |
| 2026-04-23 00:26 | 36.45880 | -114.51386 | 44860 ft | 591 kts | 50° |
| 2026-04-23 00:27 | 36.50686 | -114.43111 | 44859 ft | 591 kts | 50° |
| 2026-04-23 00:27 | 36.55495 | -114.34809 | 44874 ft | 591 kts | 51° |
| 2026-04-23 00:28 | 36.60259 | -114.26563 | 44876 ft | 591 kts | 51° |
| 2026-04-23 00:28 | 36.65057 | -114.18239 | 44879 ft | 591 kts | 51° |
| 2026-04-23 00:29 | 36.69845 | -114.09913 | 44900 ft | 591 kts | 51° |
| 2026-04-23 00:29 | 36.74595 | -114.01632 | 44901 ft | 590 kts | 51° |
| 2026-04-23 00:30 | 36.79366 | -113.93293 | 44909 ft | 590 kts | 51° |
| 2026-04-23 00:30 | 36.84131 | -113.84944 | 44915 ft | 591 kts | 51° |
| 2026-04-23 00:31 | 36.88890 | -113.76581 | 44958 ft | 591 kts | 51° |
| 2026-04-23 00:31 | 36.93623 | -113.68257 | 44946 ft | 586 kts | 51° |
| 2026-04-23 00:32 | 36.98279 | -113.60035 | 44956 ft | 586 kts | 51° |
| 2026-04-23 00:32 | 37.03013 | -113.51660 | 44957 ft | 587 kts | 51° |
| 2026-04-23 00:33 | 37.07722 | -113.43307 | 44914 ft | 587 kts | 51° |
| 2026-04-23 00:33 | 37.12413 | -113.34964 | 44923 ft | 586 kts | 51° |
| 2026-04-23 00:34 | 37.17100 | -113.26611 | 44934 ft | 586 kts | 51° |
| 2026-04-23 00:34 | 37.21780 | -113.18245 | 44946 ft | 586 kts | 51° |
| 2026-04-23 00:35 | 37.26422 | -113.09930 | 44949 ft | 585 kts | 52° |
| 2026-04-23 00:35 | 37.31073 | -113.01577 | 44924 ft | 582 kts | 52° |
| 2026-04-23 00:36 | 37.35716 | -112.93215 | 44924 ft | 583 kts | 52° |
| 2026-04-23 00:36 | 37.40359 | -112.84838 | 44918 ft | 584 kts | 52° |
| 2026-04-23 00:37 | 37.44962 | -112.76507 | 44911 ft | 583 kts | 52° |
| 2026-04-23 00:37 | 37.49571 | -112.68146 | 44898 ft | 580 kts | 52° |
| 2026-04-23 00:38 | 37.54172 | -112.59780 | 44903 ft | 582 kts | 52° |
| 2026-04-23 00:38 | 37.58770 | -112.51395 | 44886 ft | 581 kts | 52° |
| 2026-04-23 00:39 | 37.63371 | -112.42988 | 44968 ft | 582 kts | 53° |
| 2026-04-23 00:39 | 37.67927 | -112.34633 | 45012 ft | 582 kts | 53° |
| 2026-04-23 00:40 | 37.72511 | -112.26216 | 45056 ft | 582 kts | 53° |
| 2026-04-23 00:40 | 37.77090 | -112.17784 | 45056 ft | 582 kts | 53° |
| 2026-04-23 00:41 | 37.81659 | -112.09346 | 45036 ft | 582 kts | 53° |
| 2026-04-23 00:41 | 37.86202 | -112.00933 | 44990 ft | 582 kts | 53° |
| 2026-04-23 00:42 | 37.90765 | -111.92468 | 44920 ft | 583 kts | 53° |
| 2026-04-23 00:42 | 37.95323 | -111.83985 | 44874 ft | 582 kts | 53° |
| 2026-04-23 00:43 | 37.99861 | -111.75513 | 44840 ft | 580 kts | 53° |
| 2026-04-23 00:43 | 38.04388 | -111.67055 | 44843 ft | 580 kts | 53° |
| 2026-04-23 00:44 | 38.08879 | -111.58631 | 44857 ft | 580 kts | 53° |
| 2026-04-23 00:44 | 38.13395 | -111.50143 | 44840 ft | 580 kts | 53° |
| 2026-04-23 00:45 | 38.17902 | -111.41640 | 44838 ft | 579 kts | 54° |
| 2026-04-23 00:45 | 38.22405 | -111.33139 | 44821 ft | 580 kts | 53° |
| 2026-04-23 00:46 | 38.26903 | -111.24612 | 44788 ft | 580 kts | 54° |
| 2026-04-23 00:46 | 38.31391 | -111.16086 | 44795 ft | 578 kts | 54° |
| 2026-04-23 00:47 | 38.35837 | -111.07622 | 44810 ft | 581 kts | 54° |
| 2026-04-23 00:47 | 38.40326 | -110.99046 | 44836 ft | 581 kts | 54° |
| 2026-04-23 00:48 | 38.44808 | -110.90467 | 44875 ft | 581 kts | 54° |
| 2026-04-23 00:48 | 38.49277 | -110.81886 | 44893 ft | 581 kts | 54° |
| 2026-04-23 00:49 | 38.53745 | -110.73287 | 44881 ft | 580 kts | 54° |
| 2026-04-23 00:49 | 38.58197 | -110.64695 | 44864 ft | 580 kts | 54° |
| 2026-04-23 00:49 | 38.60393 | -110.60448 | 44745 ft | 580 kts | 54° |
| 2026-04-23 00:50 | 38.62615 | -110.56147 | 44792 ft | 580 kts | 54° |
| 2026-04-23 00:50 | 38.67064 | -110.47515 | 44758 ft | 580 kts | 54° |
| 2026-04-23 00:51 | 38.71502 | -110.38882 | 44734 ft | 581 kts | 54° |
| 2026-04-23 00:51 | 38.75937 | -110.30231 | 44740 ft | 581 kts | 54° |
| 2026-04-23 00:52 | 38.80337 | -110.21625 | 44743 ft | 581 kts | 54° |
| 2026-04-23 00:52 | 38.84759 | -110.12953 | 44751 ft | 581 kts | 55° |
| 2026-04-23 00:53 | 38.89167 | -110.04287 | 44763 ft | 578 kts | 55° |
| 2026-04-23 00:53 | 38.93556 | -109.95634 | 44780 ft | 579 kts | 55° |
| 2026-04-23 00:54 | 38.97913 | -109.87020 | 44783 ft | 579 kts | 55° |
| 2026-04-23 00:54 | 39.02293 | -109.78338 | 44773 ft | 579 kts | 56° |
| 2026-04-23 00:55 | 39.06665 | -109.69647 | 44770 ft | 579 kts | 56° |
| 2026-04-23 00:55 | 39.11031 | -109.60945 | 44752 ft | 579 kts | 56° |
| 2026-04-23 00:56 | 39.15387 | -109.52240 | 44731 ft | 578 kts | 56° |
| 2026-04-23 00:56 | 39.19711 | -109.43577 | 44736 ft | 579 kts | 56° |
| 2026-04-23 00:57 | 39.24062 | -109.34832 | 44726 ft | 579 kts | 56° |
| 2026-04-23 00:57 | 39.28409 | -109.26074 | 44739 ft | 579 kts | 56° |
| 2026-04-23 00:58 | 39.32758 | -109.17287 | 44712 ft | 582 kts | 56° |
| 2026-04-23 00:58 | 39.37076 | -109.08538 | 44707 ft | 581 kts | 56° |
| 2026-04-23 00:59 | 39.41423 | -108.99708 | 44704 ft | 582 kts | 56° |
| 2026-04-23 00:59 | 39.45761 | -108.90870 | 44713 ft | 583 kts | 56° |
| 2026-04-23 01:00 | 39.50038 | -108.81966 | 44696 ft | 583 kts | 60° |
| 2026-04-23 01:00 | 39.53647 | -108.72648 | 44725 ft | 583 kts | 63° |
| 2026-04-23 01:00 | 39.55414 | -108.67991 | 44366 ft | 559 kts | 63° |
| 2026-04-23 01:01 | 39.57128 | -108.63662 | 43765 ft | 526 kts | 61° |
| 2026-04-23 01:01 | 39.58806 | -108.59457 | 42886 ft | 528 kts | 62° |
| 2026-04-23 01:01 | 39.60430 | -108.55230 | 42237 ft | 521 kts | 63° |
| 2026-04-23 01:01 | 39.62004 | -108.51074 | 41580 ft | 509 kts | 63° |
| 2026-04-23 01:02 | 39.63595 | -108.46956 | 40912 ft | 510 kts | 62° |
| 2026-04-23 01:02 | 39.65201 | -108.42858 | 40232 ft | 510 kts | 62° |
| 2026-04-23 01:02 | 39.66772 | -108.38795 | 39577 ft | 510 kts | 63° |
| 2026-04-23 01:02 | 39.68347 | -108.34662 | 38910 ft | 513 kts | 63° |
| 2026-04-23 01:03 | 39.69937 | -108.30509 | 38198 ft | 516 kts | 63° |
| 2026-04-23 01:03 | 39.71549 | -108.26338 | 37511 ft | 517 kts | 63° |
| 2026-04-23 01:03 | 39.73169 | -108.22134 | 36819 ft | 524 kts | 63° |
| 2026-04-23 01:03 | 39.74799 | -108.17866 | 36132 ft | 530 kts | 63° |
| 2026-04-23 01:04 | 39.76431 | -108.13562 | 35432 ft | 536 kts | 64° |
| 2026-04-23 01:04 | 39.77957 | -108.09108 | 34752 ft | 542 kts | 67° |
| 2026-04-23 01:04 | 39.80936 | -108.00109 | 33329 ft | 548 kts | 68° |
| 2026-04-23 01:05 | 39.82463 | -107.95576 | 32619 ft | 548 kts | 67° |
| 2026-04-23 01:05 | 39.83997 | -107.91026 | 31900 ft | 548 kts | 68° |
| 2026-04-23 01:05 | 39.85502 | -107.86502 | 31201 ft | 543 kts | 68° |
| 2026-04-23 01:05 | 39.86982 | -107.82015 | 30496 ft | 536 kts | 68° |
| 2026-04-23 01:06 | 39.88454 | -107.77582 | 29661 ft | 530 kts | 68° |
| 2026-04-23 01:06 | 39.89911 | -107.73221 | 28938 ft | 520 kts | 68° |
| 2026-04-23 01:06 | 39.91333 | -107.68932 | 28270 ft | 512 kts | 68° |
| 2026-04-23 01:06 | 39.92709 | -107.64748 | 27610 ft | 506 kts | 68° |
| 2026-04-23 01:07 | 39.94092 | -107.60551 | 26959 ft | 501 kts | 68° |
| 2026-04-23 01:07 | 39.95460 | -107.56420 | 26317 ft | 494 kts | 68° |
| 2026-04-23 01:07 | 39.96813 | -107.52321 | 25665 ft | 489 kts | 68° |
| 2026-04-23 01:07 | 39.98142 | -107.48266 | 25016 ft | 483 kts | 68° |
| 2026-04-23 01:08 | 39.99451 | -107.44265 | 24385 ft | 476 kts | 68° |
| 2026-04-23 01:08 | 40.00746 | -107.40326 | 23770 ft | 471 kts | 68° |
| 2026-04-23 01:08 | 40.02027 | -107.36418 | 23115 ft | 466 kts | 68° |
| 2026-04-23 01:08 | 40.02959 | -107.32501 | 22447 ft | 452 kts | 83° |
| 2026-04-23 01:09 | 40.03389 | -107.28493 | 21998 ft | 444 kts | 86° |
| 2026-04-23 01:09 | 40.03809 | -107.24513 | 21473 ft | 443 kts | 85° |
| 2026-04-23 01:09 | 40.04248 | -107.20546 | 20946 ft | 439 kts | 85° |
| 2026-04-23 01:09 | 40.04684 | -107.16630 | 20420 ft | 434 kts | 85° |
| 2026-04-23 01:10 | 40.05099 | -107.12753 | 19897 ft | 429 kts | 86° |
| 2026-04-23 01:10 | 40.05503 | -107.08930 | 19406 ft | 422 kts | 86° |
| 2026-04-23 01:10 | 40.05908 | -107.05157 | 18890 ft | 418 kts | 85° |
| 2026-04-23 01:10 | 40.06305 | -107.01475 | 18401 ft | 412 kts | 86° |
| 2026-04-23 01:11 | 40.06697 | -106.97834 | 17853 ft | 397 kts | 86° |
| 2026-04-23 01:11 | 40.07071 | -106.94330 | 17275 ft | 383 kts | 86° |
| 2026-04-23 01:11 | 40.07425 | -106.90946 | 16697 ft | 370 kts | 86° |
| 2026-04-23 01:11 | 40.07769 | -106.87659 | 16106 ft | 360 kts | 87° |
| 2026-04-23 01:12 | 40.08106 | -106.84460 | 15539 ft | 352 kts | 86° |
| 2026-04-23 01:12 | 40.08360 | -106.81334 | 14996 ft | 340 kts | 94° |
| 2026-04-23 01:12 | 40.08107 | -106.78359 | 14829 ft | 316 kts | 104° |
| 2026-04-23 01:12 | 40.07815 | -106.75611 | 14813 ft | 297 kts | 104° |
| 2026-04-23 01:13 | 40.07553 | -106.72989 | 14817 ft | 288 kts | 104° |
| 2026-04-23 01:13 | 40.07292 | -106.70426 | 14803 ft | 292 kts | 105° |
| 2026-04-23 01:13 | 40.07018 | -106.67764 | 14638 ft | 298 kts | 104° |
| 2026-04-23 01:13 | 40.06739 | -106.65055 | 14432 ft | 301 kts | 104° |
| 2026-04-23 01:14 | 40.06203 | -106.62481 | 14073 ft | 286 kts | 125° |
| 2026-04-23 01:14 | 40.05034 | -106.60500 | 13824 ft | 267 kts | 147° |
| 2026-04-23 01:14 | 40.03527 | -106.59281 | 13820 ft | 254 kts | 167° |
| 2026-04-23 01:14 | 40.01743 | -106.58787 | 13820 ft | 268 kts | 185° |
| 2026-04-23 01:15 | 39.99904 | -106.58998 | 13856 ft | 266 kts | 194° |
| 2026-04-23 01:15 | 39.98060 | -106.59301 | 13840 ft | 268 kts | 193° |
| 2026-04-23 01:15 | 39.96231 | -106.59593 | 13853 ft | 269 kts | 193° |
| 2026-04-23 01:15 | 39.94380 | -106.59894 | 13839 ft | 265 kts | 193° |
| 2026-04-23 01:16 | 39.92541 | -106.60197 | 13799 ft | 271 kts | 194° |
| 2026-04-23 01:16 | 39.90668 | -106.60502 | 13833 ft | 271 kts | 193° |
| 2026-04-23 01:16 | 39.88796 | -106.60804 | 13820 ft | 271 kts | 193° |
| 2026-04-23 01:16 | 39.86931 | -106.61105 | 13825 ft | 272 kts | 194° |
| 2026-04-23 01:17 | 39.85055 | -106.61411 | 13839 ft | 272 kts | 193° |
| 2026-04-23 01:17 | 39.83180 | -106.61718 | 13746 ft | 272 kts | 193° |
| 2026-04-23 01:17 | 39.81294 | -106.62025 | 13406 ft | 272 kts | 193° |
| 2026-04-23 01:17 | 39.79471 | -106.62313 | 13061 ft | 256 kts | 192° |
| 2026-04-23 01:18 | 39.77781 | -106.62577 | 12766 ft | 240 kts | 194° |
| 2026-04-23 01:18 | 39.76162 | -106.62842 | 12432 ft | 229 kts | 195° |
| 2026-04-23 01:18 | 39.74594 | -106.63106 | 12157 ft | 225 kts | 194° |
| 2026-04-23 01:18 | 39.73033 | -106.63368 | 11884 ft | 227 kts | 195° |
| 2026-04-23 01:19 | 39.71452 | -106.63629 | 11594 ft | 229 kts | 195° |
| 2026-04-23 01:19 | 39.70034 | -106.64276 | 11276 ft | 205 kts | 214° |
| 2026-04-23 01:19 | 39.68947 | -106.65359 | 11069 ft | 195 kts | 227° |
| 2026-04-23 01:19 | 39.68101 | -106.66723 | 10857 ft | 192 kts | 235° |
| 2026-04-23 01:20 | 39.67637 | -106.68304 | 10599 ft | 193 kts | 257° |
| 2026-04-23 01:20 | 39.67402 | -106.69967 | 10255 ft | 181 kts | 256° |
| 2026-04-23 01:20 | 39.67042 | -106.71502 | 10022 ft | 180 kts | 247° |
| 2026-04-23 01:20 | 39.66602 | -106.73039 | 9873 ft | 184 kts | 248° |
| 2026-04-23 01:21 | 39.66232 | -106.74567 | 9595 ft | 173 kts | 253° |
| 2026-04-23 01:21 | 39.65997 | -106.76141 | 9202 ft | 176 kts | 261° |
| 2026-04-23 01:21 | 39.65830 | -106.77802 | 8839 ft | 190 kts | 257° |
| 2026-04-23 01:21 | 39.65606 | -106.79373 | 8528 ft | 161 kts | 259° |
| 2026-04-23 01:22 | 39.65480 | -106.80673 | 8345 ft | 133 kts | 261° |
| 2026-04-23 01:22 | 39.65381 | -106.81767 | 8078 ft | 115 kts | 258° |
| 2026-04-23 01:22 | 39.65249 | -106.82816 | 7837 ft | 118 kts | 259° |
| 2026-04-23 01:22 | 39.65135 | -106.83794 | 7686 ft | 104 kts | 258° |
| 2026-04-23 01:23 | 39.65026 | -106.84724 | 7531 ft | 106 kts | 257° |
| 2026-04-23 01:23 | 39.64928 | -106.85719 | 7357 ft | 112 kts | 257° |
| 2026-04-23 01:23 | 39.64798 | -106.86793 | 7202 ft | 120 kts | 257° |
| 2026-04-23 01:23 | 39.64692 | -106.87831 | 7101 ft | 118 kts | 259° |
| 2026-04-23 01:24 | 39.64570 | -106.88869 | 6880 ft | 118 kts | 260° |
| 2026-04-23 01:24 | 39.64458 | -106.89895 | 6678 ft | 113 kts | 263° |
| 2026-04-23 01:24 | 39.64352 | -106.90890 | 6538 ft | 103 kts | 263° |
| 2026-04-23 01:24 | 39.64278 | -106.91589 | 6513 ft | 56 kts | 261° |
| 2026-04-23 01:25 | 39.64240 | -106.91940 | 6497 ft | 34 kts | 262° |
| 2026-04-23 01:25 | 39.64208 | -106.92214 | 6490 ft | 19 kts | 257° |
| 2026-04-23 01:25 | 39.64117 | -106.92260 | 6488 ft | 15 kts | 146° |
| 2026-04-23 01:25 | 39.64105 | -106.92158 | 6496 ft | 13 kts | 82° |
| 2026-04-23 01:26 | 39.64121 | -106.92007 | 6502 ft | 22 kts | 82° |
| 2026-04-23 01:26 | 39.64146 | -106.91787 | 6512 ft | 25 kts | 82° |
| 2026-04-23 01:26 | 39.64169 | -106.91615 | 6521 ft | 13 kts | 68° |
| 2026-04-23 01:26 | 39.64264 | -106.91587 | 6513 ft | 22 kts | 4° |
| 2026-04-23 01:27 | 39.64392 | -106.91535 | 6523 ft | 15 kts | 21° |
| 2026-04-23 01:27 | 39.64443 | -106.91496 | 6530 ft | 5 kts | 87° |
| 2026-04-23 01:27 | 39.64445 | -106.91472 | 6530 ft | 0 kts | 84° |
| 2026-04-23 01:28 | 39.64445 | -106.91469 | 6532 ft | 6 kts | 81° |
| 2026-04-23 01:28 | 39.64459 | -106.91354 | 6530 ft | 13 kts | 82° |
| 2026-04-23 01:28 | 39.64471 | -106.91244 | 6532 ft | 12 kts | 82° |
| 2026-04-23 01:28 | 39.64519 | -106.91212 | 6530 ft | 8 kts | 349° |
| 2026-04-23 01:29 | 39.64560 | -106.91199 | 6533 ft | 6 kts | 41° |
| 2026-04-23 01:29 | 39.64566 | -106.91137 | 6530 ft | 11 kts | 92° |
| 2026-04-23 01:29 | 39.64563 | -106.91059 | 6530 ft | 1 kts | 116° |
| 2026-04-23 01:29 | 39.64549 | -106.91038 | 6530 ft | 4 kts | 112° |
| 2026-04-23 01:30 | 39.64548 | -106.91032 | 6530 ft | 0 kts | 96° |